LFMH/EBU METAR and TAF weather

Enter ICAO airport designator
Station Type Date Time Source
LFMH METAR 2021/07/29 02:30 UTC NOAA

LFMH 290230Z AUTO 00000KT 9999 1000 R18/P2000 NSC 13/12 Q1018


Station Type Date Time Source
LFMH Decoded METAR 2021/07/29 02:30 UTC NOAA

St-Etienne Boutheon, France (LFMH) 45-32N 004-18E 402M
Jul 28, 2021 - 10:30 PM EDT / 2021.07.29 0230 UTC
Wind: Calm:0
Visibility: greater than 7 mile(s):0
Temperature: 55 F (13 C)
Dew Point: 53 F (12 C)
Relative Humidity: 93%
Pressure (altimeter): 30.06 in. Hg (1018 hPa)
ob: LFMH 290230Z AUTO 00000KT 9999 1000 R18/P2000 NSC 13/12 Q1018
cycle: 2

Station Type Date Time Source
LFMH TAF 2021/06/16 19:09 UTC NOAA

TAF LFMH 161901Z 1619/1712 CNL

Example: see airport list